sensor_id;sensor_type;location;lat;lon;timestamp;P1;durP1;ratioP1;P2;durP2;ratioP2
70414;SDS011;57837;52.064;113.478;2024-01-30T00:02:16;99.60;;;47.10;;
70414;SDS011;57837;52.064;113.478;2024-01-30T00:05:20;158.52;;;68.75;;
70414;SDS011;57837;52.064;113.478;2024-01-30T00:08:24;156.30;;;59.95;;
70414;SDS011;57837;52.064;113.478;2024-01-30T00:11:28;102.20;;;49.03;;
70414;SDS011;57837;52.064;113.478;2024-01-30T00:14:32;157.88;;;59.03;;
70414;SDS011;57837;52.064;113.478;2024-01-30T00:17:36;142.18;;;64.13;;
70414;SDS011;57837;52.064;113.478;2024-01-30T00:20:40;147.40;;;59.90;;
70414;SDS011;57837;52.064;113.478;2024-01-30T00:23:43;155.82;;;63.40;;
70414;SDS011;57837;52.064;113.478;2024-01-30T00:26:47;171.05;;;61.88;;
70414;SDS011;57837;52.064;113.478;2024-01-30T00:29:50;131.10;;;58.85;;
70414;SDS011;57837;52.064;113.478;2024-01-30T00:32:53;195.27;;;83.30;;
70414;SDS011;57837;52.064;113.478;2024-01-30T00:35:58;217.82;;;85.53;;
70414;SDS011;57837;52.064;113.478;2024-01-30T00:39:01;213.15;;;88.53;;
70414;SDS011;57837;52.064;113.478;2024-01-30T00:42:08;237.57;;;84.17;;
70414;SDS011;57837;52.064;113.478;2024-01-30T00:45:13;164.07;;;78.35;;
70414;SDS011;57837;52.064;113.478;2024-01-30T00:48:18;211.73;;;99.53;;
70414;SDS011;57837;52.064;113.478;2024-01-30T00:51:22;232.70;;;93.38;;
70414;SDS011;57837;52.064;113.478;2024-01-30T00:54:26;207.93;;;80.43;;
70414;SDS011;57837;52.064;113.478;2024-01-30T00:57:30;240.07;;;95.45;;
70414;SDS011;57837;52.064;113.478;2024-01-30T01:00:34;159.00;;;73.60;;
70414;SDS011;57837;52.064;113.478;2024-01-30T01:03:38;235.37;;;87.60;;
70414;SDS011;57837;52.064;113.478;2024-01-30T01:06:44;141.10;;;77.35;;
70414;SDS011;57837;52.064;113.478;2024-01-30T01:09:47;158.27;;;84.13;;
70414;SDS011;57837;52.064;113.478;2024-01-30T01:12:50;299.97;;;128.07;;
70414;SDS011;57837;52.064;113.478;2024-01-30T01:15:54;140.45;;;83.53;;
70414;SDS011;57837;52.064;113.478;2024-01-30T01:18:58;279.08;;;106.25;;
70414;SDS011;57837;52.064;113.478;2024-01-30T01:22:03;240.00;;;95.90;;
70414;SDS011;57837;52.064;113.478;2024-01-30T01:25:07;219.25;;;95.18;;
70414;SDS011;57837;52.064;113.478;2024-01-30T01:28:12;115.03;;;60.75;;
70414;SDS011;57837;52.064;113.478;2024-01-30T01:31:16;162.82;;;69.50;;
70414;SDS011;57837;52.064;113.478;2024-01-30T01:34:20;135.73;;;53.70;;
70414;SDS011;57837;52.064;113.478;2024-01-30T01:37:26;191.88;;;72.13;;
70414;SDS011;57837;52.064;113.478;2024-01-30T01:40:30;207.45;;;83.97;;
70414;SDS011;57837;52.064;113.478;2024-01-30T01:43:33;190.83;;;75.83;;
70414;SDS011;57837;52.064;113.478;2024-01-30T01:46:37;136.40;;;56.47;;
70414;SDS011;57837;52.064;113.478;2024-01-30T01:49:42;192.60;;;75.22;;
70414;SDS011;57837;52.064;113.478;2024-01-30T01:52:48;119.85;;;52.38;;
70414;SDS011;57837;52.064;113.478;2024-01-30T01:55:53;125.70;;;57.53;;
70414;SDS011;57837;52.064;113.478;2024-01-30T01:58:59;93.40;;;55.22;;
70414;SDS011;57837;52.064;113.478;2024-01-30T02:02:07;181.45;;;74.15;;
70414;SDS011;57837;52.064;113.478;2024-01-30T02:05:14;122.90;;;56.47;;
70414;SDS011;57837;52.064;113.478;2024-01-30T02:08:19;145.77;;;71.70;;
70414;SDS011;57837;52.064;113.478;2024-01-30T02:11:23;181.55;;;71.05;;
70414;SDS011;57837;52.064;113.478;2024-01-30T02:14:27;119.37;;;55.20;;
70414;SDS011;57837;52.064;113.478;2024-01-30T02:17:33;168.75;;;67.30;;
70414;SDS011;57837;52.064;113.478;2024-01-30T02:20:36;209.82;;;82.03;;
70414;SDS011;57837;52.064;113.478;2024-01-30T02:23:46;142.98;;;69.75;;
70414;SDS011;57837;52.064;113.478;2024-01-30T02:26:51;81.82;;;44.00;;
70414;SDS011;57837;52.064;113.478;2024-01-30T02:29:54;139.18;;;66.55;;
70414;SDS011;57837;52.064;113.478;2024-01-30T02:32:58;110.22;;;47.17;;
70414;SDS011;57837;52.064;113.478;2024-01-30T02:36:01;108.70;;;43.13;;
70414;SDS011;57837;52.064;113.478;2024-01-30T02:39:05;129.32;;;48.35;;
70414;SDS011;57837;52.064;113.478;2024-01-30T02:42:09;148.15;;;66.32;;
70414;SDS011;57837;52.064;113.478;2024-01-30T02:45:12;87.87;;;47.17;;
70414;SDS011;57837;52.064;113.478;2024-01-30T02:48:16;109.45;;;44.05;;
70414;SDS011;57837;52.064;113.478;2024-01-30T02:51:19;98.32;;;44.47;;
70414;SDS011;57837;52.064;113.478;2024-01-30T02:54:22;84.80;;;38.47;;
70414;SDS011;57837;52.064;113.478;2024-01-30T02:57:27;80.90;;;37.00;;
70414;SDS011;57837;52.064;113.478;2024-01-30T03:00:32;108.82;;;44.70;;
70414;SDS011;57837;52.064;113.478;2024-01-30T03:03:35;64.20;;;29.88;;
70414;SDS011;57837;52.064;113.478;2024-01-30T03:06:44;120.77;;;52.87;;
70414;SDS011;57837;52.064;113.478;2024-01-30T03:09:49;102.18;;;46.33;;
70414;SDS011;57837;52.064;113.478;2024-01-30T03:12:52;51.22;;;31.05;;
70414;SDS011;57837;52.064;113.478;2024-01-30T03:15:55;56.00;;;31.23;;
70414;SDS011;57837;52.064;113.478;2024-01-30T03:18:59;37.20;;;25.77;;
70414;SDS011;57837;52.064;113.478;2024-01-30T03:22:04;34.78;;;18.58;;
70414;SDS011;57837;52.064;113.478;2024-01-30T03:25:08;66.32;;;29.92;;
70414;SDS011;57837;52.064;113.478;2024-01-30T03:28:11;54.58;;;25.27;;
70414;SDS011;57837;52.064;113.478;2024-01-30T03:31:15;34.97;;;20.08;;
70414;SDS011;57837;52.064;113.478;2024-01-30T03:34:19;30.42;;;25.95;;
70414;SDS011;57837;52.064;113.478;2024-01-30T03:37:22;60.03;;;27.50;;
70414;SDS011;57837;52.064;113.478;2024-01-30T03:40:25;41.75;;;20.63;;
70414;SDS011;57837;52.064;113.478;2024-01-30T03:43:28;23.50;;;16.75;;
70414;SDS011;57837;52.064;113.478;2024-01-30T03:46:31;21.87;;;16.63;;
70414;SDS011;57837;52.064;113.478;2024-01-30T03:49:35;13.00;;;11.68;;
70414;SDS011;57837;52.064;113.478;2024-01-30T03:52:39;48.08;;;21.92;;
70414;SDS011;57837;52.064;113.478;2024-01-30T03:55:43;32.70;;;20.63;;
70414;SDS011;57837;52.064;113.478;2024-01-30T03:58:47;23.20;;;13.23;;
70414;SDS011;57837;52.064;113.478;2024-01-30T04:01:50;26.45;;;18.70;;
70414;SDS011;57837;52.064;113.478;2024-01-30T04:04:54;35.38;;;16.30;;
70414;SDS011;57837;52.064;113.478;2024-01-30T04:07:58;22.77;;;18.07;;
70414;SDS011;57837;52.064;113.478;2024-01-30T04:11:05;28.98;;;16.77;;
70414;SDS011;57837;52.064;113.478;2024-01-30T04:14:10;35.97;;;14.23;;
70414;SDS011;57837;52.064;113.478;2024-01-30T04:17:14;27.53;;;12.77;;
70414;SDS011;57837;52.064;113.478;2024-01-30T04:20:17;11.55;;;6.93;;
70414;SDS011;57837;52.064;113.478;2024-01-30T04:23:21;10.55;;;7.57;;
70414;SDS011;57837;52.064;113.478;2024-01-30T04:26:25;14.10;;;7.85;;
70414;SDS011;57837;52.064;113.478;2024-01-30T04:29:29;11.48;;;4.07;;
70414;SDS011;57837;52.064;113.478;2024-01-30T04:32:32;13.85;;;4.28;;
70414;SDS011;57837;52.064;113.478;2024-01-30T04:35:36;12.30;;;11.40;;
70414;SDS011;57837;52.064;113.478;2024-01-30T04:38:41;11.23;;;4.90;;
70414;SDS011;57837;52.064;113.478;2024-01-30T04:41:44;10.02;;;4.88;;
70414;SDS011;57837;52.064;113.478;2024-01-30T04:44:48;10.23;;;7.22;;
70414;SDS011;57837;52.064;113.478;2024-01-30T04:47:51;10.30;;;9.13;;
70414;SDS011;57837;52.064;113.478;2024-01-30T04:50:56;7.72;;;5.82;;
70414;SDS011;57837;52.064;113.478;2024-01-30T04:53:59;23.38;;;8.98;;
70414;SDS011;57837;52.064;113.478;2024-01-30T04:57:04;15.73;;;9.85;;
70414;SDS011;57837;52.064;113.478;2024-01-30T05:00:11;13.93;;;8.23;;
70414;SDS011;57837;52.064;113.478;2024-01-30T05:03:20;53.38;;;12.27;;
70414;SDS011;57837;52.064;113.478;2024-01-30T05:06:28;30.17;;;8.23;;
70414;SDS011;57837;52.064;113.478;2024-01-30T05:09:33;12.50;;;5.27;;
70414;SDS011;57837;52.064;113.478;2024-01-30T05:12:38;1.75;;;1.65;;
70414;SDS011;57837;52.064;113.478;2024-01-30T05:15:41;8.02;;;6.10;;
70414;SDS011;57837;52.064;113.478;2024-01-30T05:18:44;2.33;;;2.13;;
70414;SDS011;57837;52.064;113.478;2024-01-30T05:21:48;9.30;;;6.45;;
70414;SDS011;57837;52.064;113.478;2024-01-30T05:24:52;13.88;;;7.28;;
70414;SDS011;57837;52.064;113.478;2024-01-30T05:27:55;3.90;;;3.55;;
70414;SDS011;57837;52.064;113.478;2024-01-30T05:30:59;11.93;;;8.15;;
70414;SDS011;57837;52.064;113.478;2024-01-30T05:34:03;4.53;;;4.10;;
70414;SDS011;57837;52.064;113.478;2024-01-30T05:37:31;3.78;;;3.45;;
70414;SDS011;57837;52.064;113.478;2024-01-30T05:40:35;7.47;;;3.77;;
70414;SDS011;57837;52.064;113.478;2024-01-30T05:43:38;16.85;;;7.82;;
70414;SDS011;57837;52.064;113.478;2024-01-30T05:46:42;18.17;;;6.30;;
70414;SDS011;57837;52.064;113.478;2024-01-30T05:49:45;4.90;;;1.53;;
70414;SDS011;57837;52.064;113.478;2024-01-30T05:52:50;6.68;;;4.75;;
70414;SDS011;57837;52.064;113.478;2024-01-30T05:55:55;7.68;;;6.53;;
70414;SDS011;57837;52.064;113.478;2024-01-30T05:58:59;10.48;;;7.07;;
70414;SDS011;57837;52.064;113.478;2024-01-30T06:02:02;5.13;;;3.30;;
70414;SDS011;57837;52.064;113.478;2024-01-30T06:05:07;5.95;;;4.35;;
70414;SDS011;57837;52.064;113.478;2024-01-30T06:08:11;11.07;;;7.05;;
70414;SDS011;57837;52.064;113.478;2024-01-30T06:11:15;9.43;;;7.17;;
70414;SDS011;57837;52.064;113.478;2024-01-30T06:14:18;10.60;;;4.85;;
70414;SDS011;57837;52.064;113.478;2024-01-30T06:17:23;6.68;;;3.30;;
70414;SDS011;57837;52.064;113.478;2024-01-30T06:20:27;7.50;;;5.73;;
70414;SDS011;57837;52.064;113.478;2024-01-30T06:23:32;12.43;;;5.38;;
70414;SDS011;57837;52.064;113.478;2024-01-30T06:26:35;5.50;;;4.82;;
70414;SDS011;57837;52.064;113.478;2024-01-30T06:29:38;21.77;;;4.32;;
70414;SDS011;57837;52.064;113.478;2024-01-30T06:32:41;5.30;;;4.68;;
70414;SDS011;57837;52.064;113.478;2024-01-30T06:35:44;5.70;;;5.20;;
70414;SDS011;57837;52.064;113.478;2024-01-30T06:38:49;14.93;;;10.52;;
70414;SDS011;57837;52.064;113.478;2024-01-30T06:41:53;6.93;;;5.50;;
70414;SDS011;57837;52.064;113.478;2024-01-30T06:44:57;6.93;;;6.28;;
70414;SDS011;57837;52.064;113.478;2024-01-30T06:48:01;9.35;;;4.38;;
70414;SDS011;57837;52.064;113.478;2024-01-30T06:51:04;5.67;;;5.10;;
70414;SDS011;57837;52.064;113.478;2024-01-30T06:54:09;1.85;;;1.30;;
70414;SDS011;57837;52.064;113.478;2024-01-30T06:57:12;7.95;;;7.00;;
70414;SDS011;57837;52.064;113.478;2024-01-30T07:00:17;3.92;;;3.35;;
70414;SDS011;57837;52.064;113.478;2024-01-30T07:03:22;35.90;;;20.98;;
70414;SDS011;57837;52.064;113.478;2024-01-30T07:06:26;0.30;;;0.20;;
70414;SDS011;57837;52.064;113.478;2024-01-30T07:09:30;7.88;;;7.15;;
70414;SDS011;57837;52.064;113.478;2024-01-30T07:12:34;6.80;;;6.10;;
70414;SDS011;57837;52.064;113.478;2024-01-30T07:15:38;16.48;;;7.57;;
70414;SDS011;57837;52.064;113.478;2024-01-30T07:18:45;4.68;;;3.92;;
70414;SDS011;57837;52.064;113.478;2024-01-30T07:21:49;11.70;;;4.50;;
70414;SDS011;57837;52.064;113.478;2024-01-30T07:24:54;0.85;;;0.85;;
70414;SDS011;57837;52.064;113.478;2024-01-30T07:27:57;14.00;;;7.70;;
70414;SDS011;57837;52.064;113.478;2024-01-30T07:31:01;9.90;;;8.35;;
70414;SDS011;57837;52.064;113.478;2024-01-30T07:34:05;4.03;;;3.70;;
70414;SDS011;57837;52.064;113.478;2024-01-30T07:37:09;10.73;;;9.10;;
70414;SDS011;57837;52.064;113.478;2024-01-30T07:40:13;4.68;;;3.03;;
70414;SDS011;57837;52.064;113.478;2024-01-30T07:43:17;19.60;;;8.63;;
70414;SDS011;57837;52.064;113.478;2024-01-30T07:46:20;4.20;;;2.95;;
70414;SDS011;57837;52.064;113.478;2024-01-30T07:49:24;4.15;;;2.30;;
70414;SDS011;57837;52.064;113.478;2024-01-30T07:52:28;6.37;;;4.40;;
70414;SDS011;57837;52.064;113.478;2024-01-30T07:55:48;9.13;;;7.07;;
70414;SDS011;57837;52.064;113.478;2024-01-30T07:58:57;7.38;;;6.13;;
70414;SDS011;57837;52.064;113.478;2024-01-30T08:02:01;18.90;;;6.07;;
70414;SDS011;57837;52.064;113.478;2024-01-30T08:05:05;3.63;;;3.17;;
70414;SDS011;57837;52.064;113.478;2024-01-30T08:08:09;7.07;;;6.32;;
70414;SDS011;57837;52.064;113.478;2024-01-30T08:11:14;9.00;;;4.85;;
70414;SDS011;57837;52.064;113.478;2024-01-30T08:14:18;32.80;;;7.73;;
70414;SDS011;57837;52.064;113.478;2024-01-30T08:17:24;6.18;;;5.05;;
70414;SDS011;57837;52.064;113.478;2024-01-30T08:20:27;15.07;;;13.60;;
70414;SDS011;57837;52.064;113.478;2024-01-30T08:23:31;22.50;;;14.33;;
70414;SDS011;57837;52.064;113.478;2024-01-30T08:26:35;40.15;;;19.13;;
70414;SDS011;57837;52.064;113.478;2024-01-30T08:29:40;31.52;;;26.33;;
70414;SDS011;57837;52.064;113.478;2024-01-30T08:32:44;6.32;;;5.75;;
70414;SDS011;57837;52.064;113.478;2024-01-30T08:35:48;10.50;;;6.40;;
70414;SDS011;57837;52.064;113.478;2024-01-30T08:38:51;34.42;;;14.52;;
70414;SDS011;57837;52.064;113.478;2024-01-30T08:42:01;4.72;;;3.03;;
70414;SDS011;57837;52.064;113.478;2024-01-30T08:45:05;10.57;;;7.87;;
70414;SDS011;57837;52.064;113.478;2024-01-30T08:48:09;15.45;;;6.60;;
70414;SDS011;57837;52.064;113.478;2024-01-30T08:51:13;28.70;;;10.23;;
70414;SDS011;57837;52.064;113.478;2024-01-30T08:54:19;7.80;;;6.50;;
70414;SDS011;57837;52.064;113.478;2024-01-30T08:57:22;12.85;;;8.20;;
70414;SDS011;57837;52.064;113.478;2024-01-30T09:00:26;20.45;;;16.92;;
70414;SDS011;57837;52.064;113.478;2024-01-30T09:03:30;24.38;;;16.27;;
70414;SDS011;57837;52.064;113.478;2024-01-30T09:06:34;32.33;;;19.55;;
70414;SDS011;57837;52.064;113.478;2024-01-30T09:09:39;4.78;;;4.47;;
70414;SDS011;57837;52.064;113.478;2024-01-30T09:12:46;13.38;;;8.80;;
70414;SDS011;57837;52.064;113.478;2024-01-30T09:15:49;12.63;;;11.37;;
70414;SDS011;57837;52.064;113.478;2024-01-30T09:18:53;11.35;;;4.50;;
70414;SDS011;57837;52.064;113.478;2024-01-30T09:21:57;5.75;;;5.18;;
70414;SDS011;57837;52.064;113.478;2024-01-30T09:25:01;23.47;;;14.73;;
70414;SDS011;57837;52.064;113.478;2024-01-30T09:28:05;35.03;;;18.80;;
70414;SDS011;57837;52.064;113.478;2024-01-30T09:31:10;18.35;;;14.13;;
70414;SDS011;57837;52.064;113.478;2024-01-30T09:34:14;18.25;;;11.00;;
70414;SDS011;57837;52.064;113.478;2024-01-30T09:37:18;23.15;;;13.52;;
70414;SDS011;57837;52.064;113.478;2024-01-30T09:40:26;15.98;;;9.45;;
70414;SDS011;57837;52.064;113.478;2024-01-30T09:43:33;28.73;;;11.77;;
70414;SDS011;57837;52.064;113.478;2024-01-30T09:46:39;24.87;;;9.70;;
70414;SDS011;57837;52.064;113.478;2024-01-30T09:49:44;26.00;;;15.32;;
70414;SDS011;57837;52.064;113.478;2024-01-30T09:52:47;31.40;;;17.77;;
70414;SDS011;57837;52.064;113.478;2024-01-30T09:55:53;42.20;;;20.80;;
70414;SDS011;57837;52.064;113.478;2024-01-30T09:58:57;37.58;;;23.70;;
70414;SDS011;57837;52.064;113.478;2024-01-30T10:02:01;58.05;;;26.25;;
70414;SDS011;57837;52.064;113.478;2024-01-30T10:05:07;22.00;;;10.32;;
70414;SDS011;57837;52.064;113.478;2024-01-30T10:08:12;50.42;;;28.90;;
70414;SDS011;57837;52.064;113.478;2024-01-30T10:11:17;29.30;;;17.25;;
70414;SDS011;57837;52.064;113.478;2024-01-30T10:14:22;22.73;;;12.18;;
70414;SDS011;57837;52.064;113.478;2024-01-30T10:17:25;64.97;;;28.00;;
70414;SDS011;57837;52.064;113.478;2024-01-30T10:20:35;16.63;;;13.73;;
70414;SDS011;57837;52.064;113.478;2024-01-30T10:23:40;31.48;;;17.10;;
70414;SDS011;57837;52.064;113.478;2024-01-30T10:26:44;18.10;;;12.30;;
70414;SDS011;57837;52.064;113.478;2024-01-30T10:29:48;38.90;;;23.73;;
70414;SDS011;57837;52.064;113.478;2024-01-30T10:32:52;23.30;;;11.85;;
70414;SDS011;57837;52.064;113.478;2024-01-30T10:36:03;18.13;;;14.15;;
70414;SDS011;57837;52.064;113.478;2024-01-30T10:39:09;18.33;;;12.20;;
70414;SDS011;57837;52.064;113.478;2024-01-30T10:42:14;21.95;;;18.85;;
70414;SDS011;57837;52.064;113.478;2024-01-30T10:45:20;24.63;;;16.88;;
70414;SDS011;57837;52.064;113.478;2024-01-30T10:48:26;25.07;;;19.03;;
70414;SDS011;57837;52.064;113.478;2024-01-30T10:51:36;44.80;;;20.20;;
70414;SDS011;57837;52.064;113.478;2024-01-30T10:54:41;46.72;;;24.50;;
70414;SDS011;57837;52.064;113.478;2024-01-30T10:57:48;114.13;;;57.57;;
70414;SDS011;57837;52.064;113.478;2024-01-30T11:00:53;46.88;;;25.13;;
70414;SDS011;57837;52.064;113.478;2024-01-30T11:03:58;32.65;;;14.85;;
70414;SDS011;57837;52.064;113.478;2024-01-30T11:07:01;49.30;;;27.38;;
70414;SDS011;57837;52.064;113.478;2024-01-30T11:10:06;26.30;;;10.70;;
70414;SDS011;57837;52.064;113.478;2024-01-30T11:13:13;18.83;;;13.88;;
70414;SDS011;57837;52.064;113.478;2024-01-30T11:16:19;40.05;;;15.63;;
70414;SDS011;57837;52.064;113.478;2024-01-30T11:19:30;35.87;;;20.53;;
70414;SDS011;57837;52.064;113.478;2024-01-30T11:22:35;59.90;;;21.45;;
70414;SDS011;57837;52.064;113.478;2024-01-30T11:25:38;17.05;;;10.07;;
70414;SDS011;57837;52.064;113.478;2024-01-30T11:28:43;10.40;;;9.40;;
70414;SDS011;57837;52.064;113.478;2024-01-30T11:31:59;11.88;;;5.93;;
70414;SDS011;57837;52.064;113.478;2024-01-30T11:35:04;14.68;;;6.38;;
70414;SDS011;57837;52.064;113.478;2024-01-30T11:38:15;9.75;;;5.45;;
70414;SDS011;57837;52.064;113.478;2024-01-30T11:41:20;20.17;;;10.00;;
70414;SDS011;57837;52.064;113.478;2024-01-30T11:44:25;23.17;;;12.25;;
70414;SDS011;57837;52.064;113.478;2024-01-30T11:47:29;18.88;;;9.60;;
70414;SDS011;57837;52.064;113.478;2024-01-30T11:50:33;33.20;;;16.93;;
70414;SDS011;57837;52.064;113.478;2024-01-30T11:53:38;27.33;;;17.67;;
70414;SDS011;57837;52.064;113.478;2024-01-30T11:56:42;51.40;;;20.13;;
70414;SDS011;57837;52.064;113.478;2024-01-30T11:59:49;47.37;;;23.10;;
70414;SDS011;57837;52.064;113.478;2024-01-30T12:02:54;17.38;;;12.93;;
70414;SDS011;57837;52.064;113.478;2024-01-30T12:06:04;49.20;;;19.20;;
70414;SDS011;57837;52.064;113.478;2024-01-30T12:09:08;41.35;;;22.33;;
70414;SDS011;57837;52.064;113.478;2024-01-30T12:12:13;27.83;;;18.17;;
70414;SDS011;57837;52.064;113.478;2024-01-30T12:15:18;20.45;;;14.90;;
70414;SDS011;57837;52.064;113.478;2024-01-30T12:18:25;28.25;;;14.20;;
70414;SDS011;57837;52.064;113.478;2024-01-30T12:21:28;20.10;;;13.63;;
70414;SDS011;57837;52.064;113.478;2024-01-30T12:24:33;32.83;;;17.67;;
70414;SDS011;57837;52.064;113.478;2024-01-30T12:27:39;40.80;;;23.48;;
70414;SDS011;57837;52.064;113.478;2024-01-30T12:30:43;39.23;;;19.67;;
70414;SDS011;57837;52.064;113.478;2024-01-30T12:33:49;54.60;;;28.73;;
70414;SDS011;57837;52.064;113.478;2024-01-30T12:36:55;58.15;;;29.58;;
70414;SDS011;57837;52.064;113.478;2024-01-30T12:40:01;56.17;;;28.75;;
70414;SDS011;57837;52.064;113.478;2024-01-30T12:43:06;50.22;;;32.90;;
70414;SDS011;57837;52.064;113.478;2024-01-30T12:46:10;45.75;;;27.38;;
70414;SDS011;57837;52.064;113.478;2024-01-30T12:49:13;96.75;;;37.85;;
70414;SDS011;57837;52.064;113.478;2024-01-30T12:52:17;73.17;;;35.50;;
70414;SDS011;57837;52.064;113.478;2024-01-30T12:55:20;90.05;;;48.42;;
70414;SDS011;57837;52.064;113.478;2024-01-30T12:58:25;128.35;;;61.22;;
70414;SDS011;57837;52.064;113.478;2024-01-30T13:01:28;115.20;;;51.13;;
70414;SDS011;57837;52.064;113.478;2024-01-30T13:04:32;123.25;;;53.70;;
70414;SDS011;57837;52.064;113.478;2024-01-30T13:07:38;72.88;;;54.05;;
70414;SDS011;57837;52.064;113.478;2024-01-30T13:10:42;159.10;;;58.33;;
70414;SDS011;57837;52.064;113.478;2024-01-30T13:13:47;100.68;;;49.88;;
70414;SDS011;57837;52.064;113.478;2024-01-30T13:16:51;91.00;;;48.20;;
70414;SDS011;57837;52.064;113.478;2024-01-30T13:19:55;65.65;;;36.15;;
70414;SDS011;57837;52.064;113.478;2024-01-30T13:23:12;137.60;;;54.40;;
70414;SDS011;57837;52.064;113.478;2024-01-30T13:26:14;74.68;;;39.90;;
70414;SDS011;57837;52.064;113.478;2024-01-30T13:29:18;119.95;;;59.25;;
70414;SDS011;57837;52.064;113.478;2024-01-30T13:32:21;163.53;;;61.23;;
70414;SDS011;57837;52.064;113.478;2024-01-30T13:35:25;92.03;;;54.47;;
70414;SDS011;57837;52.064;113.478;2024-01-30T13:38:29;125.70;;;62.85;;
70414;SDS011;57837;52.064;113.478;2024-01-30T13:41:33;88.68;;;42.22;;
70414;SDS011;57837;52.064;113.478;2024-01-30T13:44:36;96.90;;;42.95;;
70414;SDS011;57837;52.064;113.478;2024-01-30T13:47:41;116.43;;;61.63;;
70414;SDS011;57837;52.064;113.478;2024-01-30T13:50:44;100.13;;;49.53;;
70414;SDS011;57837;52.064;113.478;2024-01-30T13:53:48;133.83;;;67.97;;
70414;SDS011;57837;52.064;113.478;2024-01-30T13:56:52;127.30;;;64.50;;
70414;SDS011;57837;52.064;113.478;2024-01-30T13:59:56;63.03;;;49.22;;
70414;SDS011;57837;52.064;113.478;2024-01-30T14:03:00;87.50;;;51.23;;
70414;SDS011;57837;52.064;113.478;2024-01-30T14:06:04;87.15;;;45.78;;
70414;SDS011;57837;52.064;113.478;2024-01-30T14:09:08;74.50;;;37.70;;
70414;SDS011;57837;52.064;113.478;2024-01-30T14:12:37;231.25;;;93.53;;
70414;SDS011;57837;52.064;113.478;2024-01-30T14:15:42;208.90;;;94.72;;
70414;SDS011;57837;52.064;113.478;2024-01-30T14:18:46;171.15;;;87.82;;
70414;SDS011;57837;52.064;113.478;2024-01-30T14:21:49;108.97;;;66.93;;
70414;SDS011;57837;52.064;113.478;2024-01-30T14:24:52;115.73;;;54.90;;
70414;SDS011;57837;52.064;113.478;2024-01-30T14:27:55;111.57;;;61.28;;
70414;SDS011;57837;52.064;113.478;2024-01-30T14:30:59;203.80;;;88.07;;
70414;SDS011;57837;52.064;113.478;2024-01-30T14:34:03;133.90;;;66.97;;
70414;SDS011;57837;52.064;113.478;2024-01-30T14:37:07;194.85;;;90.10;;
70414;SDS011;57837;52.064;113.478;2024-01-30T14:40:11;278.25;;;120.90;;
70414;SDS011;57837;52.064;113.478;2024-01-30T14:43:15;198.98;;;94.90;;
70414;SDS011;57837;52.064;113.478;2024-01-30T14:46:19;123.18;;;69.43;;
70414;SDS011;57837;52.064;113.478;2024-01-30T14:49:25;141.15;;;73.10;;
70414;SDS011;57837;52.064;113.478;2024-01-30T14:52:29;176.48;;;83.47;;
70414;SDS011;57837;52.064;113.478;2024-01-30T14:55:34;198.37;;;87.63;;
70414;SDS011;57837;52.064;113.478;2024-01-30T14:58:38;118.30;;;65.18;;
70414;SDS011;57837;52.064;113.478;2024-01-30T15:01:43;100.85;;;57.78;;
70414;SDS011;57837;52.064;113.478;2024-01-30T15:04:48;171.50;;;77.40;;
70414;SDS011;57837;52.064;113.478;2024-01-30T15:07:52;182.93;;;76.10;;
70414;SDS011;57837;52.064;113.478;2024-01-30T15:10:58;179.38;;;74.03;;
70414;SDS011;57837;52.064;113.478;2024-01-30T15:14:02;129.43;;;62.53;;
70414;SDS011;57837;52.064;113.478;2024-01-30T15:17:06;146.35;;;81.50;;
70414;SDS011;57837;52.064;113.478;2024-01-30T15:20:10;116.32;;;55.55;;
70414;SDS011;57837;52.064;113.478;2024-01-30T15:23:14;65.28;;;39.78;;
70414;SDS011;57837;52.064;113.478;2024-01-30T15:26:19;96.57;;;54.27;;
70414;SDS011;57837;52.064;113.478;2024-01-30T15:29:23;160.85;;;76.25;;
70414;SDS011;57837;52.064;113.478;2024-01-30T15:32:27;96.15;;;58.80;;
70414;SDS011;57837;52.064;113.478;2024-01-30T15:35:32;170.43;;;84.50;;
70414;SDS011;57837;52.064;113.478;2024-01-30T15:38:38;137.70;;;75.03;;
70414;SDS011;57837;52.064;113.478;2024-01-30T15:41:41;92.22;;;61.45;;
70414;SDS011;57837;52.064;113.478;2024-01-30T15:44:45;259.17;;;99.57;;
70414;SDS011;57837;52.064;113.478;2024-01-30T15:47:50;144.48;;;79.20;;
70414;SDS011;57837;52.064;113.478;2024-01-30T15:50:54;180.88;;;84.93;;
70414;SDS011;57837;52.064;113.478;2024-01-30T15:53:58;257.27;;;107.10;;
70414;SDS011;57837;52.064;113.478;2024-01-30T15:57:01;248.97;;;112.97;;
70414;SDS011;57837;52.064;113.478;2024-01-30T16:00:06;206.20;;;94.70;;
70414;SDS011;57837;52.064;113.478;2024-01-30T16:03:11;189.05;;;81.82;;
70414;SDS011;57837;52.064;113.478;2024-01-30T16:06:16;241.53;;;102.20;;
70414;SDS011;57837;52.064;113.478;2024-01-30T16:09:19;197.25;;;94.80;;
70414;SDS011;57837;52.064;113.478;2024-01-30T16:12:28;138.45;;;63.22;;
70414;SDS011;57837;52.064;113.478;2024-01-30T16:15:32;197.07;;;100.75;;
70414;SDS011;57837;52.064;113.478;2024-01-30T16:18:36;303.48;;;135.60;;
70414;SDS011;57837;52.064;113.478;2024-01-30T16:21:40;248.07;;;113.63;;
70414;SDS011;57837;52.064;113.478;2024-01-30T16:24:46;248.35;;;117.18;;
70414;SDS011;57837;52.064;113.478;2024-01-30T16:27:50;267.17;;;119.40;;
70414;SDS011;57837;52.064;113.478;2024-01-30T16:30:56;258.73;;;120.97;;
70414;SDS011;57837;52.064;113.478;2024-01-30T16:34:00;284.60;;;128.98;;
70414;SDS011;57837;52.064;113.478;2024-01-30T16:37:05;155.17;;;72.10;;
70414;SDS011;57837;52.064;113.478;2024-01-30T16:40:08;281.10;;;108.82;;
70414;SDS011;57837;52.064;113.478;2024-01-30T16:43:13;264.02;;;117.32;;
70414;SDS011;57837;52.064;113.478;2024-01-30T16:46:16;201.90;;;96.57;;
70414;SDS011;57837;52.064;113.478;2024-01-30T16:49:20;188.88;;;89.97;;
70414;SDS011;57837;52.064;113.478;2024-01-30T16:52:24;200.50;;;96.43;;
70414;SDS011;57837;52.064;113.478;2024-01-30T16:55:28;98.53;;;50.45;;
70414;SDS011;57837;52.064;113.478;2024-01-30T16:58:31;163.63;;;76.57;;
70414;SDS011;57837;52.064;113.478;2024-01-30T17:01:35;165.55;;;78.10;;
70414;SDS011;57837;52.064;113.478;2024-01-30T17:04:39;161.20;;;69.38;;
70414;SDS011;57837;52.064;113.478;2024-01-30T17:07:42;81.73;;;38.70;;
70414;SDS011;57837;52.064;113.478;2024-01-30T17:10:45;121.72;;;59.88;;
70414;SDS011;57837;52.064;113.478;2024-01-30T17:13:49;212.60;;;81.65;;
70414;SDS011;57837;52.064;113.478;2024-01-30T17:16:53;88.20;;;44.40;;
70414;SDS011;57837;52.064;113.478;2024-01-30T17:20:07;196.90;;;81.97;;
70414;SDS011;57837;52.064;113.478;2024-01-30T17:23:11;91.90;;;54.33;;
70414;SDS011;57837;52.064;113.478;2024-01-30T17:26:15;96.10;;;62.42;;
70414;SDS011;57837;52.064;113.478;2024-01-30T17:29:18;203.40;;;84.20;;